sensor_id;sensor_type;location;lat;lon;timestamp;P1;durP1;ratioP1;P2;durP2;ratioP2
5549;SDS011;2798;42.716;23.256;2022-09-16T00:02:05;12.23;;;3.77;;
5549;SDS011;2798;42.716;23.256;2022-09-16T00:04:30;8.33;;;4.47;;
5549;SDS011;2798;42.716;23.256;2022-09-16T00:06:56;7.73;;;3.60;;
5549;SDS011;2798;42.716;23.256;2022-09-16T00:09:21;8.70;;;3.07;;
5549;SDS011;2798;42.716;23.256;2022-09-16T00:11:46;10.40;;;3.83;;
5549;SDS011;2798;42.716;23.256;2022-09-16T00:14:11;10.33;;;3.40;;
5549;SDS011;2798;42.716;23.256;2022-09-16T00:16:37;7.17;;;3.23;;
5549;SDS011;2798;42.716;23.256;2022-09-16T00:19:02;10.60;;;3.27;;
5549;SDS011;2798;42.716;23.256;2022-09-16T00:21:28;8.80;;;3.63;;
5549;SDS011;2798;42.716;23.256;2022-09-16T00:23:54;7.77;;;3.90;;
5549;SDS011;2798;42.716;23.256;2022-09-16T00:26:19;7.63;;;3.87;;
5549;SDS011;2798;42.716;23.256;2022-09-16T00:28:47;9.33;;;4.20;;
5549;SDS011;2798;42.716;23.256;2022-09-16T00:31:12;8.53;;;4.23;;
5549;SDS011;2798;42.716;23.256;2022-09-16T00:33:37;5.70;;;3.50;;
5549;SDS011;2798;42.716;23.256;2022-09-16T00:36:12;8.13;;;3.20;;
5549;SDS011;2798;42.716;23.256;2022-09-16T00:38:38;12.80;;;3.40;;
5549;SDS011;2798;42.716;23.256;2022-09-16T00:41:03;7.80;;;3.90;;
5549;SDS011;2798;42.716;23.256;2022-09-16T00:43:45;10.90;;;3.30;;
5549;SDS011;2798;42.716;23.256;2022-09-16T00:46:10;13.97;;;3.30;;
5549;SDS011;2798;42.716;23.256;2022-09-16T00:48:35;6.97;;;3.97;;
5549;SDS011;2798;42.716;23.256;2022-09-16T00:51:02;11.80;;;4.10;;
5549;SDS011;2798;42.716;23.256;2022-09-16T00:53:30;8.40;;;3.57;;
5549;SDS011;2798;42.716;23.256;2022-09-16T00:55:58;13.43;;;3.33;;
5549;SDS011;2798;42.716;23.256;2022-09-16T01:00:59;8.70;;;3.60;;
5549;SDS011;2798;42.716;23.256;2022-09-16T01:03:25;11.87;;;4.57;;
5549;SDS011;2798;42.716;23.256;2022-09-16T01:05:52;8.43;;;3.60;;
5549;SDS011;2798;42.716;23.256;2022-09-16T01:08:18;10.33;;;3.17;;
5549;SDS011;2798;42.716;23.256;2022-09-16T01:10:43;8.70;;;3.03;;
5549;SDS011;2798;42.716;23.256;2022-09-16T01:13:09;9.33;;;3.30;;
5549;SDS011;2798;42.716;23.256;2022-09-16T01:16:20;13.60;;;3.70;;
5549;SDS011;2798;42.716;23.256;2022-09-16T01:18:32;11.87;;;3.70;;
5549;SDS011;2798;42.716;23.256;2022-09-16T01:21:08;8.17;;;3.53;;
5549;SDS011;2798;42.716;23.256;2022-09-16T01:34:00;3.20;;;2.40;;
5549;SDS011;2798;42.716;23.256;2022-09-16T01:39:22;5.70;;;2.73;;
5549;SDS011;2798;42.716;23.256;2022-09-16T01:41:55;15.60;;;3.20;;
5549;SDS011;2798;42.716;23.256;2022-09-16T01:44:22;8.30;;;3.40;;
5549;SDS011;2798;42.716;23.256;2022-09-16T01:49:25;6.80;;;2.70;;
5549;SDS011;2798;42.716;23.256;2022-09-16T01:59:23;6.77;;;3.00;;
5549;SDS011;2798;42.716;23.256;2022-09-16T02:01:52;7.03;;;3.13;;
5549;SDS011;2798;42.716;23.256;2022-09-16T02:04:21;13.93;;;6.67;;
5549;SDS011;2798;42.716;23.256;2022-09-16T02:06:48;13.20;;;7.87;;
5549;SDS011;2798;42.716;23.256;2022-09-16T02:09:15;10.03;;;5.57;;
5549;SDS011;2798;42.716;23.256;2022-09-16T02:11:43;8.50;;;3.47;;
5549;SDS011;2798;42.716;23.256;2022-09-16T02:14:17;13.17;;;4.30;;
5549;SDS011;2798;42.716;23.256;2022-09-16T02:16:52;13.10;;;3.57;;
5549;SDS011;2798;42.716;23.256;2022-09-16T02:19:23;4.70;;;2.60;;
5549;SDS011;2798;42.716;23.256;2022-09-16T02:21:50;5.50;;;2.23;;
5549;SDS011;2798;42.716;23.256;2022-09-16T02:24:17;9.83;;;3.10;;
5549;SDS011;2798;42.716;23.256;2022-09-16T02:26:46;7.13;;;2.57;;
5549;SDS011;2798;42.716;23.256;2022-09-16T02:29:14;15.17;;;4.27;;
5549;SDS011;2798;42.716;23.256;2022-09-16T02:31:41;8.17;;;3.30;;
5549;SDS011;2798;42.716;23.256;2022-09-16T02:34:14;15.60;;;3.33;;
5549;SDS011;2798;42.716;23.256;2022-09-16T02:36:41;9.30;;;2.77;;
5549;SDS011;2798;42.716;23.256;2022-09-16T02:39:08;18.07;;;4.10;;
5549;SDS011;2798;42.716;23.256;2022-09-16T02:41:36;12.57;;;3.10;;
5549;SDS011;2798;42.716;23.256;2022-09-16T02:44:02;6.87;;;3.07;;
5549;SDS011;2798;42.716;23.256;2022-09-16T02:46:32;5.97;;;2.90;;
5549;SDS011;2798;42.716;23.256;2022-09-16T02:56:56;6.80;;;3.20;;
5549;SDS011;2798;42.716;23.256;2022-09-16T02:59:21;6.00;;;3.20;;
5549;SDS011;2798;42.716;23.256;2022-09-16T03:01:47;11.93;;;4.30;;
5549;SDS011;2798;42.716;23.256;2022-09-16T03:04:14;8.40;;;3.50;;
5549;SDS011;2798;42.716;23.256;2022-09-16T03:06:40;10.77;;;3.43;;
5549;SDS011;2798;42.716;23.256;2022-09-16T03:09:07;5.57;;;3.07;;
5549;SDS011;2798;42.716;23.256;2022-09-16T03:20:02;12.10;;;3.20;;
5549;SDS011;2798;42.716;23.256;2022-09-16T03:27:27;10.73;;;3.70;;
5549;SDS011;2798;42.716;23.256;2022-09-16T03:29:56;14.40;;;4.67;;
5549;SDS011;2798;42.716;23.256;2022-09-16T03:32:26;9.73;;;4.07;;
5549;SDS011;2798;42.716;23.256;2022-09-16T03:37:22;6.83;;;3.57;;
5549;SDS011;2798;42.716;23.256;2022-09-16T03:39:52;11.93;;;4.47;;
5549;SDS011;2798;42.716;23.256;2022-09-16T03:42:19;9.67;;;4.43;;
5549;SDS011;2798;42.716;23.256;2022-09-16T03:44:45;10.60;;;4.90;;
5549;SDS011;2798;42.716;23.256;2022-09-16T03:47:10;11.03;;;4.30;;
5549;SDS011;2798;42.716;23.256;2022-09-16T03:49:36;11.43;;;4.27;;
5549;SDS011;2798;42.716;23.256;2022-09-16T03:52:02;16.17;;;4.00;;
5549;SDS011;2798;42.716;23.256;2022-09-16T03:54:29;12.70;;;3.90;;
5549;SDS011;2798;42.716;23.256;2022-09-16T03:56:55;11.70;;;4.17;;
5549;SDS011;2798;42.716;23.256;2022-09-16T03:59:20;9.30;;;4.30;;
5549;SDS011;2798;42.716;23.256;2022-09-16T04:01:46;15.77;;;3.90;;
5549;SDS011;2798;42.716;23.256;2022-09-16T04:04:11;15.30;;;4.43;;
5549;SDS011;2798;42.716;23.256;2022-09-16T04:06:37;10.60;;;4.50;;
5549;SDS011;2798;42.716;23.256;2022-09-16T04:09:03;9.47;;;3.70;;
5549;SDS011;2798;42.716;23.256;2022-09-16T04:11:29;14.43;;;3.77;;
5549;SDS011;2798;42.716;23.256;2022-09-16T04:13:56;15.70;;;4.10;;
5549;SDS011;2798;42.716;23.256;2022-09-16T04:16:21;13.10;;;3.80;;
5549;SDS011;2798;42.716;23.256;2022-09-16T04:18:46;20.43;;;4.23;;
5549;SDS011;2798;42.716;23.256;2022-09-16T04:21:12;11.83;;;3.77;;
5549;SDS011;2798;42.716;23.256;2022-09-16T04:23:37;10.57;;;3.33;;
5549;SDS011;2798;42.716;23.256;2022-09-16T04:26:02;13.87;;;2.97;;
5549;SDS011;2798;42.716;23.256;2022-09-16T04:28:28;12.60;;;3.57;;
5549;SDS011;2798;42.716;23.256;2022-09-16T04:30:58;6.87;;;3.23;;
5549;SDS011;2798;42.716;23.256;2022-09-16T04:33:23;17.87;;;3.90;;
5549;SDS011;2798;42.716;23.256;2022-09-16T04:35:51;18.03;;;4.60;;
5549;SDS011;2798;42.716;23.256;2022-09-16T04:38:16;9.13;;;3.00;;
5549;SDS011;2798;42.716;23.256;2022-09-16T04:40:42;19.37;;;4.83;;
5549;SDS011;2798;42.716;23.256;2022-09-16T04:43:07;7.67;;;4.20;;
5549;SDS011;2798;42.716;23.256;2022-09-16T04:45:33;10.90;;;4.37;;
5549;SDS011;2798;42.716;23.256;2022-09-16T04:47:59;11.53;;;4.73;;
5549;SDS011;2798;42.716;23.256;2022-09-16T04:50:24;20.97;;;4.50;;
5549;SDS011;2798;42.716;23.256;2022-09-16T04:52:49;17.40;;;3.63;;
5549;SDS011;2798;42.716;23.256;2022-09-16T04:55:16;16.10;;;2.90;;
5549;SDS011;2798;42.716;23.256;2022-09-16T04:57:41;23.67;;;3.60;;
5549;SDS011;2798;42.716;23.256;2022-09-16T05:00:07;15.60;;;4.40;;
5549;SDS011;2798;42.716;23.256;2022-09-16T05:02:32;11.87;;;3.10;;
5549;SDS011;2798;42.716;23.256;2022-09-16T05:04:57;14.80;;;3.60;;
5549;SDS011;2798;42.716;23.256;2022-09-16T05:07:23;15.20;;;6.17;;
5549;SDS011;2798;42.716;23.256;2022-09-16T05:09:48;18.00;;;6.13;;
5549;SDS011;2798;42.716;23.256;2022-09-16T05:12:13;17.60;;;5.30;;
5549;SDS011;2798;42.716;23.256;2022-09-16T05:14:38;26.13;;;6.67;;
5549;SDS011;2798;42.716;23.256;2022-09-16T05:17:04;17.70;;;6.40;;
5549;SDS011;2798;42.716;23.256;2022-09-16T05:19:29;14.23;;;4.87;;
5549;SDS011;2798;42.716;23.256;2022-09-16T05:21:54;18.77;;;4.77;;
5549;SDS011;2798;42.716;23.256;2022-09-16T05:24:19;21.33;;;4.67;;
5549;SDS011;2798;42.716;23.256;2022-09-16T05:26:44;20.07;;;3.90;;
5549;SDS011;2798;42.716;23.256;2022-09-16T05:29:11;13.20;;;4.17;;
5549;SDS011;2798;42.716;23.256;2022-09-16T05:31:37;12.10;;;4.70;;
5549;SDS011;2798;42.716;23.256;2022-09-16T05:34:04;28.33;;;7.07;;
5549;SDS011;2798;42.716;23.256;2022-09-16T05:36:31;15.57;;;6.50;;
5549;SDS011;2798;42.716;23.256;2022-09-16T05:38:56;13.27;;;5.30;;
5549;SDS011;2798;42.716;23.256;2022-09-16T05:41:22;17.40;;;5.20;;
5549;SDS011;2798;42.716;23.256;2022-09-16T05:43:47;9.17;;;4.10;;
5549;SDS011;2798;42.716;23.256;2022-09-16T05:46:17;17.30;;;5.17;;
5549;SDS011;2798;42.716;23.256;2022-09-16T05:48:43;16.90;;;4.03;;
5549;SDS011;2798;42.716;23.256;2022-09-16T05:51:08;12.90;;;5.20;;
5549;SDS011;2798;42.716;23.256;2022-09-16T05:53:35;12.20;;;5.10;;
5549;SDS011;2798;42.716;23.256;2022-09-16T05:56:01;12.40;;;4.90;;
5549;SDS011;2798;42.716;23.256;2022-09-16T05:58:27;17.73;;;5.27;;
5549;SDS011;2798;42.716;23.256;2022-09-16T06:03:34;15.43;;;4.77;;
5549;SDS011;2798;42.716;23.256;2022-09-16T06:06:03;20.77;;;5.67;;
5549;SDS011;2798;42.716;23.256;2022-09-16T06:08:30;13.50;;;4.50;;
5549;SDS011;2798;42.716;23.256;2022-09-16T06:10:55;12.07;;;4.40;;
5549;SDS011;2798;42.716;23.256;2022-09-16T06:13:21;20.43;;;6.07;;
5549;SDS011;2798;42.716;23.256;2022-09-16T06:15:49;15.30;;;4.50;;
5549;SDS011;2798;42.716;23.256;2022-09-16T06:18:15;15.67;;;4.97;;
5549;SDS011;2798;42.716;23.256;2022-09-16T06:20:41;11.40;;;5.10;;
5549;SDS011;2798;42.716;23.256;2022-09-16T06:23:06;10.30;;;5.13;;
5549;SDS011;2798;42.716;23.256;2022-09-16T06:25:31;17.67;;;5.37;;
5549;SDS011;2798;42.716;23.256;2022-09-16T06:27:58;12.57;;;4.37;;
5549;SDS011;2798;42.716;23.256;2022-09-16T06:30:24;12.33;;;4.30;;
5549;SDS011;2798;42.716;23.256;2022-09-16T06:32:50;6.37;;;3.47;;
5549;SDS011;2798;42.716;23.256;2022-09-16T06:35:15;10.43;;;3.97;;
5549;SDS011;2798;42.716;23.256;2022-09-16T06:37:40;15.10;;;3.83;;
5549;SDS011;2798;42.716;23.256;2022-09-16T06:40:06;21.13;;;4.93;;
5549;SDS011;2798;42.716;23.256;2022-09-16T06:42:31;9.63;;;3.80;;
5549;SDS011;2798;42.716;23.256;2022-09-16T06:44:56;7.83;;;3.80;;
5549;SDS011;2798;42.716;23.256;2022-09-16T06:47:22;6.70;;;3.27;;
5549;SDS011;2798;42.716;23.256;2022-09-16T06:49:47;10.23;;;3.50;;
5549;SDS011;2798;42.716;23.256;2022-09-16T06:52:13;10.97;;;3.80;;
5549;SDS011;2798;42.716;23.256;2022-09-16T06:54:38;17.93;;;4.63;;
5549;SDS011;2798;42.716;23.256;2022-09-16T06:57:03;15.93;;;4.80;;
5549;SDS011;2798;42.716;23.256;2022-09-16T06:59:28;18.13;;;4.23;;
5549;SDS011;2798;42.716;23.256;2022-09-16T07:01:54;14.23;;;4.40;;
5549;SDS011;2798;42.716;23.256;2022-09-16T07:04:19;12.73;;;4.73;;
5549;SDS011;2798;42.716;23.256;2022-09-16T07:06:44;10.97;;;3.80;;
5549;SDS011;2798;42.716;23.256;2022-09-16T07:09:10;8.73;;;4.00;;
5549;SDS011;2798;42.716;23.256;2022-09-16T07:11:36;17.10;;;4.27;;
5549;SDS011;2798;42.716;23.256;2022-09-16T07:14:01;11.17;;;4.10;;
5549;SDS011;2798;42.716;23.256;2022-09-16T07:16:26;7.37;;;3.97;;
5549;SDS011;2798;42.716;23.256;2022-09-16T07:18:55;9.70;;;3.40;;
5549;SDS011;2798;42.716;23.256;2022-09-16T07:21:21;8.37;;;3.40;;
5549;SDS011;2798;42.716;23.256;2022-09-16T07:23:49;12.17;;;3.00;;
5549;SDS011;2798;42.716;23.256;2022-09-16T07:26:15;7.70;;;3.60;;
5549;SDS011;2798;42.716;23.256;2022-09-16T07:28:41;7.83;;;3.80;;
5549;SDS011;2798;42.716;23.256;2022-09-16T07:31:10;13.77;;;4.00;;
5549;SDS011;2798;42.716;23.256;2022-09-16T07:33:37;18.20;;;3.27;;
5549;SDS011;2798;42.716;23.256;2022-09-16T07:36:03;9.40;;;3.10;;
5549;SDS011;2798;42.716;23.256;2022-09-16T07:38:29;16.27;;;3.97;;
5549;SDS011;2798;42.716;23.256;2022-09-16T07:40:55;11.37;;;4.00;;
5549;SDS011;2798;42.716;23.256;2022-09-16T07:43:20;13.00;;;3.90;;
5549;SDS011;2798;42.716;23.256;2022-09-16T07:45:46;23.80;;;4.80;;
5549;SDS011;2798;42.716;23.256;2022-09-16T07:48:11;14.83;;;4.23;;
5549;SDS011;2798;42.716;23.256;2022-09-16T07:50:36;13.43;;;3.43;;
5549;SDS011;2798;42.716;23.256;2022-09-16T07:53:01;14.97;;;3.27;;
5549;SDS011;2798;42.716;23.256;2022-09-16T07:55:28;14.40;;;3.90;;
5549;SDS011;2798;42.716;23.256;2022-09-16T07:57:53;11.63;;;3.77;;
5549;SDS011;2798;42.716;23.256;2022-09-16T08:00:18;10.03;;;3.50;;
5549;SDS011;2798;42.716;23.256;2022-09-16T08:02:44;7.40;;;3.07;;
5549;SDS011;2798;42.716;23.256;2022-09-16T08:05:09;14.07;;;4.20;;
5549;SDS011;2798;42.716;23.256;2022-09-16T08:07:34;15.30;;;3.40;;
5549;SDS011;2798;42.716;23.256;2022-09-16T08:10:00;7.93;;;3.23;;
5549;SDS011;2798;42.716;23.256;2022-09-16T08:12:25;11.63;;;3.70;;
5549;SDS011;2798;42.716;23.256;2022-09-16T08:14:56;13.47;;;3.83;;
5549;SDS011;2798;42.716;23.256;2022-09-16T08:17:21;12.77;;;3.53;;
5549;SDS011;2798;42.716;23.256;2022-09-16T08:19:46;12.47;;;4.10;;
5549;SDS011;2798;42.716;23.256;2022-09-16T08:22:12;6.50;;;3.27;;
5549;SDS011;2798;42.716;23.256;2022-09-16T08:24:37;7.93;;;3.07;;
5549;SDS011;2798;42.716;23.256;2022-09-16T08:27:02;10.60;;;3.70;;
5549;SDS011;2798;42.716;23.256;2022-09-16T08:29:28;8.50;;;3.07;;
5549;SDS011;2798;42.716;23.256;2022-09-16T08:31:53;14.50;;;3.60;;
5549;SDS011;2798;42.716;23.256;2022-09-16T08:34:19;16.80;;;3.70;;
5549;SDS011;2798;42.716;23.256;2022-09-16T08:36:44;13.97;;;3.80;;
5549;SDS011;2798;42.716;23.256;2022-09-16T08:39:09;16.43;;;4.23;;
5549;SDS011;2798;42.716;23.256;2022-09-16T08:41:48;7.13;;;3.33;;
5549;SDS011;2798;42.716;23.256;2022-09-16T08:44:33;10.40;;;2.97;;
5549;SDS011;2798;42.716;23.256;2022-09-16T08:47:09;8.27;;;2.73;;
5549;SDS011;2798;42.716;23.256;2022-09-16T08:49:39;7.60;;;2.87;;
5549;SDS011;2798;42.716;23.256;2022-09-16T08:52:47;10.10;;;3.40;;
5549;SDS011;2798;42.716;23.256;2022-09-16T08:55:01;18.63;;;4.17;;
5549;SDS011;2798;42.716;23.256;2022-09-16T08:57:28;16.00;;;4.33;;
5549;SDS011;2798;42.716;23.256;2022-09-16T08:59:56;15.63;;;3.73;;
5549;SDS011;2798;42.716;23.256;2022-09-16T09:05:09;16.30;;;3.80;;
5549;SDS011;2798;42.716;23.256;2022-09-16T09:23:01;5.60;;;3.30;;
5549;SDS011;2798;42.716;23.256;2022-09-16T09:30:31;12.93;;;3.83;;
5549;SDS011;2798;42.716;23.256;2022-09-16T09:33:44;13.30;;;4.17;;
5549;SDS011;2798;42.716;23.256;2022-09-16T09:40:59;11.10;;;3.53;;
5549;SDS011;2798;42.716;23.256;2022-09-16T09:45:57;15.00;;;4.00;;
5549;SDS011;2798;42.716;23.256;2022-09-16T09:48:28;10.23;;;4.00;;
5549;SDS011;2798;42.716;23.256;2022-09-16T09:50:55;12.83;;;3.60;;
5549;SDS011;2798;42.716;23.256;2022-09-16T09:53:30;10.23;;;3.97;;
5549;SDS011;2798;42.716;23.256;2022-09-16T10:01:17;17.63;;;3.90;;
5549;SDS011;2798;42.716;23.256;2022-09-16T10:03:43;14.23;;;4.53;;
5549;SDS011;2798;42.716;23.256;2022-09-16T10:06:10;7.07;;;3.37;;
5549;SDS011;2798;42.716;23.256;2022-09-16T10:08:45;6.00;;;3.33;;
5549;SDS011;2798;42.716;23.256;2022-09-16T10:11:28;11.80;;;4.10;;
5549;SDS011;2798;42.716;23.256;2022-09-16T10:13:59;10.73;;;3.80;;
5549;SDS011;2798;42.716;23.256;2022-09-16T10:16:26;9.83;;;4.10;;
5549;SDS011;2798;42.716;23.256;2022-09-16T10:19:38;15.90;;;4.27;;
5549;SDS011;2798;42.716;23.256;2022-09-16T10:21:39;13.30;;;4.57;;
5549;SDS011;2798;42.716;23.256;2022-09-16T10:24:18;15.03;;;4.30;;
5549;SDS011;2798;42.716;23.256;2022-09-16T10:26:47;9.00;;;3.70;;
5549;SDS011;2798;42.716;23.256;2022-09-16T10:29:16;10.90;;;2.90;;
5549;SDS011;2798;42.716;23.256;2022-09-16T10:31:43;7.30;;;3.17;;
5549;SDS011;2798;42.716;23.256;2022-09-16T10:34:51;10.50;;;2.80;;
5549;SDS011;2798;42.716;23.256;2022-09-16T10:39:31;12.70;;;3.00;;
5549;SDS011;2798;42.716;23.256;2022-09-16T10:41:57;7.50;;;3.17;;
5549;SDS011;2798;42.716;23.256;2022-09-16T10:44:29;7.00;;;2.77;;
5549;SDS011;2798;42.716;23.256;2022-09-16T10:47:05;14.23;;;3.43;;
5549;SDS011;2798;42.716;23.256;2022-09-16T10:49:37;6.67;;;3.03;;
5549;SDS011;2798;42.716;23.256;2022-09-16T10:52:22;9.80;;;4.03;;
5549;SDS011;2798;42.716;23.256;2022-09-16T10:54:48;12.80;;;3.37;;
5549;SDS011;2798;42.716;23.256;2022-09-16T10:59:54;13.40;;;3.83;;
5549;SDS011;2798;42.716;23.256;2022-09-16T11:05:11;6.80;;;3.30;;
5549;SDS011;2798;42.716;23.256;2022-09-16T11:20:37;7.17;;;3.10;;
5549;SDS011;2798;42.716;23.256;2022-09-16T11:23:19;7.70;;;2.77;;
5549;SDS011;2798;42.716;23.256;2022-09-16T11:30:52;5.87;;;2.00;;
5549;SDS011;2798;42.716;23.256;2022-09-16T11:36:30;2.90;;;2.27;;
5549;SDS011;2798;42.716;23.256;2022-09-16T11:39:04;3.30;;;2.10;;
5549;SDS011;2798;42.716;23.256;2022-09-16T11:41:54;6.47;;;2.67;;
5549;SDS011;2798;42.716;23.256;2022-09-16T11:44:32;8.67;;;3.30;;
5549;SDS011;2798;42.716;23.256;2022-09-16T11:57:18;6.20;;;3.20;;
5549;SDS011;2798;42.716;23.256;2022-09-16T11:59:49;7.67;;;2.50;;
5549;SDS011;2798;42.716;23.256;2022-09-16T12:04:52;7.63;;;3.33;;
5549;SDS011;2798;42.716;23.256;2022-09-16T12:07:22;18.90;;;3.80;;
5549;SDS011;2798;42.716;23.256;2022-09-16T12:12:35;8.10;;;3.40;;
5549;SDS011;2798;42.716;23.256;2022-09-16T12:15:04;14.20;;;3.83;;
5549;SDS011;2798;42.716;23.256;2022-09-16T12:17:32;6.90;;;3.20;;
5549;SDS011;2798;42.716;23.256;2022-09-16T12:20:05;5.70;;;3.07;;
5549;SDS011;2798;42.716;23.256;2022-09-16T12:22:36;6.40;;;2.70;;
5549;SDS011;2798;42.716;23.256;2022-09-16T12:25:14;6.40;;;3.10;;
5549;SDS011;2798;42.716;23.256;2022-09-16T12:27:49;4.73;;;2.53;;
5549;SDS011;2798;42.716;23.256;2022-09-16T12:30:20;5.87;;;2.90;;
5549;SDS011;2798;42.716;23.256;2022-09-16T12:32:53;7.00;;;2.70;;
5549;SDS011;2798;42.716;23.256;2022-09-16T12:35:22;7.20;;;3.10;;
5549;SDS011;2798;42.716;23.256;2022-09-16T12:37:50;5.20;;;2.43;;
5549;SDS011;2798;42.716;23.256;2022-09-16T12:40:17;11.60;;;3.10;;
5549;SDS011;2798;42.716;23.256;2022-09-16T12:48:37;11.37;;;6.77;;
5549;SDS011;2798;42.716;23.256;2022-09-16T12:51:26;9.63;;;4.10;;
5549;SDS011;2798;42.716;23.256;2022-09-16T13:01:31;7.47;;;3.23;;
5549;SDS011;2798;42.716;23.256;2022-09-16T13:04:18;7.30;;;2.80;;
5549;SDS011;2798;42.716;23.256;2022-09-16T13:06:52;8.97;;;3.43;;
5549;SDS011;2798;42.716;23.256;2022-09-16T13:09:23;7.50;;;3.20;;
5549;SDS011;2798;42.716;23.256;2022-09-16T13:11:53;5.83;;;2.80;;
5549;SDS011;2798;42.716;23.256;2022-09-16T13:14:21;9.33;;;3.70;;
5549;SDS011;2798;42.716;23.256;2022-09-16T13:16:51;6.57;;;3.30;;
5549;SDS011;2798;42.716;23.256;2022-09-16T13:21:48;10.30;;;3.80;;
5549;SDS011;2798;42.716;23.256;2022-09-16T13:24:22;5.20;;;2.90;;
5549;SDS011;2798;42.716;23.256;2022-09-16T13:26:48;8.10;;;3.63;;
5549;SDS011;2798;42.716;23.256;2022-09-16T13:31:58;5.20;;;3.27;;
5549;SDS011;2798;42.716;23.256;2022-09-16T13:34:23;8.63;;;3.40;;
5549;SDS011;2798;42.716;23.256;2022-09-16T13:36:49;8.00;;;2.77;;
5549;SDS011;2798;42.716;23.256;2022-09-16T13:39:15;7.07;;;3.27;;
5549;SDS011;2798;42.716;23.256;2022-09-16T13:41:51;8.97;;;3.57;;
5549;SDS011;2798;42.716;23.256;2022-09-16T13:46:49;5.83;;;3.33;;
5549;SDS011;2798;42.716;23.256;2022-09-16T13:49:16;5.40;;;3.10;;
5549;SDS011;2798;42.716;23.256;2022-09-16T13:51:43;6.37;;;2.80;;
5549;SDS011;2798;42.716;23.256;2022-09-16T14:01:56;6.47;;;3.90;;
5549;SDS011;2798;42.716;23.256;2022-09-16T14:06:56;4.63;;;3.07;;
5549;SDS011;2798;42.716;23.256;2022-09-16T14:12:14;5.13;;;3.30;;
5549;SDS011;2798;42.716;23.256;2022-09-16T14:14:41;6.63;;;3.27;;
5549;SDS011;2798;42.716;23.256;2022-09-16T14:17:13;4.33;;;2.50;;
5549;SDS011;2798;42.716;23.256;2022-09-16T14:19:39;3.50;;;2.77;;
5549;SDS011;2798;42.716;23.256;2022-09-16T14:24:36;8.10;;;6.73;;
5549;SDS011;2798;42.716;23.256;2022-09-16T14:27:01;6.70;;;6.00;;
5549;SDS011;2798;42.716;23.256;2022-09-16T14:29:27;12.00;;;8.17;;
5549;SDS011;2798;42.716;23.256;2022-09-16T14:31:53;6.83;;;5.17;;
5549;SDS011;2798;42.716;23.256;2022-09-16T14:34:30;10.23;;;6.60;;
5549;SDS011;2798;42.716;23.256;2022-09-16T14:36:56;4.73;;;3.50;;
5549;SDS011;2798;42.716;23.256;2022-09-16T14:39:22;5.63;;;3.53;;
5549;SDS011;2798;42.716;23.256;2022-09-16T14:41:58;12.93;;;6.07;;
5549;SDS011;2798;42.716;23.256;2022-09-16T14:47:00;12.37;;;9.73;;
5549;SDS011;2798;42.716;23.256;2022-09-16T14:49:26;12.70;;;8.87;;
5549;SDS011;2798;42.716;23.256;2022-09-16T14:51:54;8.97;;;6.20;;
5549;SDS011;2798;42.716;23.256;2022-09-16T14:54:20;10.67;;;5.80;;
5549;SDS011;2798;42.716;23.256;2022-09-16T14:59:21;4.53;;;2.90;;
5549;SDS011;2798;42.716;23.256;2022-09-16T15:01:47;26.90;;;8.37;;
5549;SDS011;2798;42.716;23.256;2022-09-16T15:04:16;13.53;;;5.40;;
5549;SDS011;2798;42.716;23.256;2022-09-16T15:06:48;24.97;;;8.53;;
5549;SDS011;2798;42.716;23.256;2022-09-16T15:09:15;8.80;;;4.50;;
5549;SDS011;2798;42.716;23.256;2022-09-16T15:11:49;22.30;;;5.40;;
5549;SDS011;2798;42.716;23.256;2022-09-16T15:14:16;15.50;;;5.40;;
5549;SDS011;2798;42.716;23.256;2022-09-16T15:16:44;16.50;;;5.67;;
5549;SDS011;2798;42.716;23.256;2022-09-16T15:19:20;8.50;;;3.80;;
5549;SDS011;2798;42.716;23.256;2022-09-16T15:21:47;9.13;;;4.30;;
5549;SDS011;2798;42.716;23.256;2022-09-16T15:24:20;8.60;;;3.73;;
5549;SDS011;2798;42.716;23.256;2022-09-16T15:26:47;6.47;;;3.80;;
5549;SDS011;2798;42.716;23.256;2022-09-16T15:29:25;7.43;;;3.50;;
5549;SDS011;2798;42.716;23.256;2022-09-16T15:31:51;6.10;;;3.17;;
5549;SDS011;2798;42.716;23.256;2022-09-16T15:36:55;8.53;;;3.47;;
5549;SDS011;2798;42.716;23.256;2022-09-16T15:41:47;10.33;;;3.20;;
5549;SDS011;2798;42.716;23.256;2022-09-16T15:44:14;6.40;;;3.40;;
5549;SDS011;2798;42.716;23.256;2022-09-16T15:46:44;12.23;;;3.20;;
5549;SDS011;2798;42.716;23.256;2022-09-16T15:49:10;8.70;;;3.77;;
5549;SDS011;2798;42.716;23.256;2022-09-16T15:51:46;4.83;;;2.90;;
5549;SDS011;2798;42.716;23.256;2022-09-16T15:56:51;10.30;;;3.57;;
5549;SDS011;2798;42.716;23.256;2022-09-16T16:00:07;8.57;;;3.93;;
5549;SDS011;2798;42.716;23.256;2022-09-16T16:04:51;9.77;;;4.40;;
5549;SDS011;2798;42.716;23.256;2022-09-16T16:10:11;10.30;;;4.20;;
5549;SDS011;2798;42.716;23.256;2022-09-16T16:12:38;7.90;;;4.40;;
5549;SDS011;2798;42.716;23.256;2022-09-16T16:15:04;6.70;;;3.80;;
5549;SDS011;2798;42.716;23.256;2022-09-16T16:17:30;16.63;;;4.30;;
5549;SDS011;2798;42.716;23.256;2022-09-16T16:19:55;13.63;;;4.93;;
5549;SDS011;2798;42.716;23.256;2022-09-16T16:22:21;11.50;;;5.23;;
5549;SDS011;2798;42.716;23.256;2022-09-16T16:24:46;10.30;;;4.73;;
5549;SDS011;2798;42.716;23.256;2022-09-16T16:27:12;10.80;;;4.30;;
5549;SDS011;2798;42.716;23.256;2022-09-16T16:29:37;9.90;;;5.00;;
5549;SDS011;2798;42.716;23.256;2022-09-16T16:32:07;11.63;;;4.90;;
5549;SDS011;2798;42.716;23.256;2022-09-16T16:34:33;11.37;;;5.60;;
5549;SDS011;2798;42.716;23.256;2022-09-16T16:36:58;15.93;;;5.27;;
5549;SDS011;2798;42.716;23.256;2022-09-16T16:39:24;10.97;;;5.50;;
5549;SDS011;2798;42.716;23.256;2022-09-16T16:41:50;13.40;;;5.43;;
5549;SDS011;2798;42.716;23.256;2022-09-16T16:44:17;13.50;;;5.03;;
5549;SDS011;2798;42.716;23.256;2022-09-16T16:46:42;17.83;;;5.20;;
5549;SDS011;2798;42.716;23.256;2022-09-16T16:49:08;16.30;;;5.97;;
5549;SDS011;2798;42.716;23.256;2022-09-16T16:51:33;13.03;;;5.57;;
5549;SDS011;2798;42.716;23.256;2022-09-16T16:53:58;11.47;;;4.77;;
5549;SDS011;2798;42.716;23.256;2022-09-16T16:56:25;10.27;;;4.30;;
5549;SDS011;2798;42.716;23.256;2022-09-16T16:58:50;13.00;;;5.43;;
5549;SDS011;2798;42.716;23.256;2022-09-16T17:01:16;15.00;;;4.57;;
5549;SDS011;2798;42.716;23.256;2022-09-16T17:03:43;14.03;;;5.13;;
5549;SDS011;2798;42.716;23.256;2022-09-16T17:06:14;15.67;;;5.30;;
5549;SDS011;2798;42.716;23.256;2022-09-16T17:08:39;14.17;;;5.53;;
5549;SDS011;2798;42.716;23.256;2022-09-16T17:11:11;13.87;;;5.63;;
5549;SDS011;2798;42.716;23.256;2022-09-16T17:13:37;23.00;;;5.27;;
5549;SDS011;2798;42.716;23.256;2022-09-16T17:16:03;18.10;;;6.20;;
5549;SDS011;2798;42.716;23.256;2022-09-16T17:18:28;17.33;;;6.40;;
5549;SDS011;2798;42.716;23.256;2022-09-16T17:20:59;17.23;;;5.70;;
5549;SDS011;2798;42.716;23.256;2022-09-16T17:23:24;15.77;;;5.73;;
5549;SDS011;2798;42.716;23.256;2022-09-16T17:25:50;18.30;;;5.23;;
5549;SDS011;2798;42.716;23.256;2022-09-16T17:28:15;14.30;;;4.77;;
5549;SDS011;2798;42.716;23.256;2022-09-16T17:30:43;14.33;;;5.00;;
5549;SDS011;2798;42.716;23.256;2022-09-16T17:33:08;15.10;;;5.37;;
5549;SDS011;2798;42.716;23.256;2022-09-16T17:35:34;13.33;;;5.23;;
5549;SDS011;2798;42.716;23.256;2022-09-16T17:38:00;17.67;;;5.77;;
5549;SDS011;2798;42.716;23.256;2022-09-16T17:40:25;12.27;;;5.20;;
5549;SDS011;2798;42.716;23.256;2022-09-16T17:42:51;13.00;;;6.20;;
5549;SDS011;2798;42.716;23.256;2022-09-16T17:45:16;18.53;;;6.30;;
5549;SDS011;2798;42.716;23.256;2022-09-16T17:47:41;19.33;;;5.60;;
5549;SDS011;2798;42.716;23.256;2022-09-16T17:50:06;11.57;;;4.60;;
5549;SDS011;2798;42.716;23.256;2022-09-16T17:52:32;15.87;;;6.37;;
5549;SDS011;2798;42.716;23.256;2022-09-16T17:54:57;12.20;;;5.00;;
5549;SDS011;2798;42.716;23.256;2022-09-16T17:57:22;13.30;;;5.50;;
5549;SDS011;2798;42.716;23.256;2022-09-16T17:59:49;10.80;;;4.63;;
5549;SDS011;2798;42.716;23.256;2022-09-16T18:02:15;15.70;;;6.10;;
5549;SDS011;2798;42.716;23.256;2022-09-16T18:04:40;13.37;;;5.27;;
5549;SDS011;2798;42.716;23.256;2022-09-16T18:07:07;17.13;;;6.00;;